Main page
METAR-TAF:

METAR-TAF

Airports :

London Southend Airport

London-Southend, England

latitude: 51-34N, longitude: 000-42E, elevation: 15 m

Current weather observation

The report was made 2 hours and 6 minutes ago, at 21:50 UTC
Wind 7 kt from the West/Southwest
Temperature 9°C
Humidity 81%
Pressure 1030 hPa
Visibility 10 km or more
Scattered clouds at a height of 4800 ft

METAR: EGMC 192150Z 24007KT 9999 SCT048 09/06 Q1030

Time: 23:56 (23:56 UTC)

Forecast

The report was made 3 hours and 55 minutes ago, at 20:01 UTC
Forecast valid from 19 at 21 UTC to 20 at 06 UTC
Wind 8 kt from the Southwest
Visibility 10 km or more
Scattered clouds at a height of 4500 ft
Probability 30% :
Temporary
from 19 at 21 UTC to 20 at 06 UTC
Visibility: 9000 m

TAF: EGMC 192001Z 1921/2006 23008KT 9999 SCT045 PROB30 TEMPO 1921/2006 9000

Weather observations and forecasts of more than 4000 airports (METAR and TAF reports).

The available stations are represented by yellow and red dots on the map.

Hover mouse over dot to see the name of the station.

Then click to see weather observations and forecasts.

To change the map : click on the green buttons with a black cross to zoom in, on the green button with a dash to zoom out, or on the green arrows for adjacent maps.


METAR-TAF: